createdAt,value
2022-11-25T00:08:42.714Z,96729.51
2022-11-25T00:18:49.151Z,96737.55
2022-11-25T00:28:55.298Z,96733.91
2022-11-25T00:39:06.451Z,96739.15
2022-11-25T00:49:14.856Z,96733.16
2022-11-25T00:59:21.000Z,96750.39
2022-11-25T01:09:26.845Z,96761.88
2022-11-25T01:19:31.024Z,96761.63
2022-11-25T01:29:36.744Z,96766.75
2022-11-25T01:39:40.709Z,96761.61
2022-11-25T01:50:02.878Z,96768.89
2022-11-25T02:00:08.366Z,96765.02
2022-11-25T02:10:29.106Z,96764.79
2022-11-25T02:20:32.888Z,96762.95
2022-11-25T02:30:36.793Z,96760.10
2022-11-25T02:40:51.384Z,96758.67
2022-11-25T02:50:56.208Z,96751.66
2022-11-25T03:01:00.522Z,96763.55
2022-11-25T03:11:05.178Z,96768.64
2022-11-25T03:21:09.864Z,96774.90
2022-11-25T03:31:13.671Z,96775.78
2022-11-25T03:41:17.701Z,96786.59
2022-11-25T03:51:21.572Z,96794.73
2022-11-25T04:01:25.745Z,96802.58
2022-11-25T04:11:48.589Z,96806.14
2022-11-25T04:21:53.571Z,96802.20
2022-11-25T04:31:57.669Z,96806.27
2022-11-25T04:42:20.253Z,96808.69
2022-11-25T04:52:24.335Z,96809.69
2022-11-25T05:02:29.394Z,96821.20
2022-11-25T05:12:49.010Z,96830.20
2022-11-25T05:22:54.795Z,96838.05
2022-11-25T05:32:59.210Z,96846.17
2022-11-25T05:43:03.731Z,96850.75
2022-11-25T05:53:08.591Z,96863.31
2022-11-25T06:03:12.795Z,96881.96
2022-11-25T06:13:16.958Z,96884.52
2022-11-25T06:23:22.771Z,96895.51
2022-11-25T06:33:27.243Z,96900.20
2022-11-25T06:43:33.049Z,96903.83
2022-11-25T06:53:37.740Z,96915.52
2022-11-25T07:03:43.133Z,96918.20
2022-11-25T07:13:50.428Z,96927.13
2022-11-25T07:23:54.453Z,96929.64
2022-11-25T07:34:04.453Z,96934.13
2022-11-25T07:44:09.793Z,96934.43
2022-11-25T07:54:39.736Z,96935.91
2022-11-25T08:04:43.634Z,96945.13
2022-11-25T08:14:47.420Z,96959.77
2022-11-25T08:24:51.287Z,96966.60
2022-11-25T08:34:55.077Z,96967.41
2022-11-25T08:44:59.471Z,96978.54
2022-11-25T08:55:04.252Z,96983.43
2022-11-25T09:05:08.155Z,96985.52
2022-11-25T09:15:12.534Z,96989.77
2022-11-25T09:25:16.262Z,96987.73
2022-11-25T09:35:21.417Z,96993.00
2022-11-25T09:46:02.891Z,96997.38
2022-11-25T09:56:20.000Z,97001.27
2022-11-25T10:06:30.117Z,96999.99
2022-11-25T10:16:40.044Z,96999.38
2022-11-25T10:26:55.180Z,96999.52
2022-11-25T10:37:02.580Z,97003.39
2022-11-25T10:47:33.794Z,97004.91
2022-11-25T10:57:37.695Z,97015.73
2022-11-25T11:07:44.096Z,97019.89
2022-11-25T11:17:48.935Z,97019.45
2022-11-25T11:27:52.829Z,97016.82
2022-11-25T11:38:07.971Z,97022.36
2022-11-25T11:48:41.378Z,97018.41
2022-11-25T11:58:51.716Z,97023.70
2022-11-25T12:09:05.409Z,97026.36
2022-11-25T12:19:33.959Z,97022.84
2022-11-25T12:30:19.362Z,97031.95
2022-11-25T12:40:47.994Z,97038.28
2022-11-25T12:51:07.216Z,97041.95
2022-11-25T13:01:37.933Z,97046.16
2022-11-25T13:12:09.957Z,97047.27
2022-11-25T13:22:24.003Z,97047.59
2022-11-25T13:32:31.874Z,97052.36
2022-11-25T13:42:44.138Z,97054.42
2022-11-25T13:52:57.343Z,97058.13
2022-11-25T14:03:47.340Z,97062.81
2022-11-25T14:14:09.650Z,97071.92
2022-11-25T14:24:23.509Z,97074.91
2022-11-25T14:34:57.817Z,97081.46
2022-11-25T14:45:02.580Z,97082.23
2022-11-25T14:55:07.478Z,97089.48
2022-11-25T15:05:11.418Z,97095.08
2022-11-25T15:15:16.319Z,97102.55
2022-11-25T15:25:20.900Z,97108.65
2022-11-25T15:35:26.814Z,97106.64
2022-11-25T15:45:44.364Z,97113.16
2022-11-25T15:55:48.349Z,97119.05
2022-11-25T16:06:02.638Z,97116.94
2022-11-25T16:16:41.180Z,97123.91
2022-11-25T16:27:08.217Z,97133.70
2022-11-25T16:37:12.736Z,97131.19
2022-11-25T16:47:19.194Z,97136.46
2022-11-25T16:57:23.635Z,97148.89
2022-11-25T17:07:35.058Z,97153.59
2022-11-25T17:17:40.918Z,97163.27
2022-11-25T17:27:46.946Z,97170.21
2022-11-25T17:37:51.446Z,97167.08
2022-11-25T17:47:56.091Z,97174.71
2022-11-25T17:58:02.110Z,97178.89
2022-11-25T18:08:06.175Z,97184.92
2022-11-25T18:18:28.399Z,97192.98
2022-11-25T18:28:33.981Z,97195.64
2022-11-25T18:38:39.079Z,97195.92
2022-11-25T18:48:44.889Z,97195.29
2022-11-25T18:58:52.379Z,97199.98
2022-11-25T19:09:00.839Z,97202.87
2022-11-25T19:19:05.708Z,97211.45
2022-11-25T19:29:21.479Z,97221.23
2022-11-25T19:39:29.719Z,97230.26
2022-11-25T19:49:36.656Z,97226.43
2022-11-25T19:59:41.948Z,97240.05
2022-11-25T20:09:48.379Z,97257.20
2022-11-25T20:19:55.218Z,97263.30
2022-11-25T20:30:01.146Z,97273.93
2022-11-25T20:40:16.907Z,97283.41
2022-11-25T20:50:23.692Z,97296.61
2022-11-25T21:00:29.414Z,97303.02
2022-11-25T21:10:36.259Z,97309.58
2022-11-25T21:20:41.669Z,97317.90
2022-11-25T21:30:47.409Z,97314.87
2022-11-25T21:40:56.583Z,97314.92
2022-11-25T21:51:00.759Z,97328.03
2022-11-25T22:01:05.072Z,97329.97
2022-11-25T22:11:14.002Z,97325.54
2022-11-25T22:21:17.683Z,97329.02
2022-11-25T22:31:28.072Z,97337.45
2022-11-25T22:41:32.273Z,97339.54
2022-11-25T22:51:36.503Z,97342.33
2022-11-25T23:01:40.457Z,97343.47
2022-11-25T23:11:45.458Z,97340.98
2022-11-25T23:21:49.532Z,97340.27
2022-11-25T23:31:53.755Z,97349.80
2022-11-25T23:41:57.531Z,97351.05
2022-11-25T23:52:07.521Z,97359.09
